Time;durP1;ratioP1;P1;durP2;ratioP2;P2;SDS_P1;SDS_P2;PMS_P1;PMS_P2;Temp;Humidity;BMP_temperature;BMP_pressure;BME280_temperature;BME280_humidity;BME280_pressure;Samples;Min_cycle;Max_cycle;Signal;HPM_P1;HPM_P2
2024/02/28 00:01:17;;;;;;;14.35;9.18;;;24.30;49.40;;;;;;6084581;28;81247;-59
2024/02/28 00:04:17;;;;;;;15.70;9.93;;;24.40;49.40;;;;;;6093530;28;80901;-59
2024/02/28 00:07:18;;;;;;;18.25;9.27;;;24.30;49.30;;;;;;6083193;28;81577;-59
2024/02/28 00:10:19;;;;;;;15.30;9.60;;;24.30;49.30;;;;;;6082856;28;80858;-60
2024/02/28 00:13:22;;;;;;;16.80;10.38;;;24.30;49.40;;;;;;6081997;28;82088;-61
2024/02/28 00:16:22;;;;;;;15.20;9.20;;;24.30;49.40;;;;;;6079680;28;82903;-59
2024/02/28 00:19:25;;;;;;;13.68;9.30;;;24.30;50.00;;;;;;6081137;28;82048;-59
2024/02/28 00:22:25;;;;;;;16.60;9.60;;;24.30;49.60;;;;;;6093848;28;81884;-59
2024/02/28 00:25:26;;;;;;;13.23;9.77;;;24.30;49.50;;;;;;6097860;28;80367;-60
2024/02/28 00:28:26;;;;;;;14.40;8.80;;;24.40;49.50;;;;;;6094943;28;80483;-59
2024/02/28 00:31:27;;;;;;;18.10;10.20;;;24.30;50.10;;;;;;6087212;28;80453;-60
2024/02/28 00:34:27;;;;;;;14.73;9.75;;;24.40;49.50;;;;;;6087358;28;83447;-60
2024/02/28 00:37:28;;;;;;;14.30;9.05;;;24.40;49.50;;;;;;6081655;28;83082;-60
2024/02/28 00:40:28;;;;;;;13.68;9.23;;;24.40;49.50;;;;;;6094904;28;80527;-58
2024/02/28 00:43:29;;;;;;;17.83;9.95;;;24.40;49.60;;;;;;6082344;28;80310;-58
2024/02/28 00:46:29;;;;;;;16.60;10.07;;;24.40;49.60;;;;;;6083679;28;81029;-58
2024/02/28 00:49:30;;;;;;;17.38;9.65;;;24.40;49.50;;;;;;6080309;28;83058;-57
2024/02/28 00:52:32;;;;;;;17.13;9.48;;;24.30;49.50;;;;;;6083222;28;82917;-58
2024/02/28 00:55:32;;;;;;;18.83;10.02;;;24.40;49.70;;;;;;6093604;28;80119;-58
2024/02/28 00:58:33;;;;;;;17.20;10.15;;;24.40;49.60;;;;;;6078304;28;83022;-59
2024/02/28 01:01:33;;;;;;;16.02;10.55;;;24.40;49.60;;;;;;6091283;28;82864;-60
2024/02/28 01:04:34;;;;;;;16.02;9.60;;;24.40;49.50;;;;;;6081714;28;82830;-60
2024/02/28 01:07:34;;;;;;;18.15;10.27;;;24.40;49.50;;;;;;6104127;28;82991;-60
2024/02/28 01:10:35;;;;;;;16.23;9.63;;;24.40;49.40;;;;;;6079453;28;84140;-58
2024/02/28 01:13:35;;;;;;;16.17;10.60;;;24.30;49.40;;;;;;6081537;28;83131;-58
2024/02/28 01:16:36;;;;;;;14.98;9.68;;;24.30;49.30;;;;;;6098949;28;83048;-58
2024/02/28 01:19:36;;;;;;;18.75;11.00;;;24.40;49.40;;;;;;6103904;28;83085;-58
2024/02/28 01:22:37;;;;;;;18.30;11.20;;;24.30;49.30;;;;;;6101127;28;83131;-59
2024/02/28 01:25:37;;;;;;;17.23;11.00;;;24.30;49.20;;;;;;6101399;28;84782;-59
2024/02/28 01:28:38;;;;;;;16.88;10.85;;;24.40;49.30;;;;;;6097098;28;83526;-61
2024/02/28 01:31:38;;;;;;;16.08;10.05;;;24.30;49.20;;;;;;6095515;28;82866;-60
2024/02/28 01:34:39;;;;;;;16.50;10.35;;;24.30;49.30;;;;;;6085131;28;83243;-59
2024/02/28 01:37:39;;;;;;;17.52;10.32;;;24.30;49.30;;;;;;6078398;28;84307;-59
2024/02/28 01:40:40;;;;;;;18.58;10.05;;;24.30;49.20;;;;;;6077964;28;82881;-59
2024/02/28 01:43:40;;;;;;;17.95;10.68;;;24.30;49.30;;;;;;6079232;28;83660;-59
2024/02/28 01:46:41;;;;;;;15.57;9.63;;;24.30;49.20;;;;;;6075990;28;83310;-59
2024/02/28 01:49:42;;;;;;;17.58;10.88;;;24.30;49.20;;;;;;6095499;28;84451;-59
2024/02/28 01:52:42;;;;;;;15.27;9.70;;;24.30;49.30;;;;;;6076789;28;88551;-58
2024/02/28 01:55:43;;;;;;;15.20;10.35;;;24.30;49.20;;;;;;6088793;28;83349;-59
2024/02/28 01:58:43;;;;;;;14.57;9.18;;;24.30;49.20;;;;;;6098994;28;82903;-59
2024/02/28 02:01:44;;;;;;;14.65;10.75;;;24.30;49.20;;;;;;6099489;28;83263;-59
2024/02/28 02:04:44;;;;;;;14.25;9.55;;;24.30;49.10;;;;;;6080418;28;83419;-59
2024/02/28 02:07:45;;;;;;;20.92;10.73;;;24.30;49.20;;;;;;6103926;28;82990;-58
2024/02/28 02:10:45;;;;;;;15.63;10.38;;;24.30;49.30;;;;;;6100968;28;83728;-58
2024/02/28 02:13:46;;;;;;;19.00;10.95;;;24.30;49.20;;;;;;6099167;28;82958;-60
2024/02/28 02:16:46;;;;;;;14.48;10.07;;;24.30;49.40;;;;;;6099639;28;84756;-59
2024/02/28 02:19:47;;;;;;;15.68;10.05;;;24.30;49.40;;;;;;6099897;28;83328;-59
2024/02/28 02:22:48;;;;;;;16.48;10.50;;;24.30;49.70;;;;;;6094161;28;84884;-59
2024/02/28 02:25:48;;;;;;;17.15;10.98;;;24.30;49.40;;;;;;6087565;28;83122;-59
2024/02/28 02:28:49;;;;;;;14.30;10.13;;;24.30;49.50;;;;;;6076607;28;82744;-59
2024/02/28 02:31:49;;;;;;;17.30;10.80;;;24.30;49.60;;;;;;6088813;28;83500;-59
2024/02/28 02:34:50;;;;;;;19.00;11.52;;;24.30;49.60;;;;;;6089447;28;83385;-58
2024/02/28 02:37:51;;;;;;;18.77;11.52;;;24.30;49.50;;;;;;6076814;28;84034;-58
2024/02/28 02:40:51;;;;;;;18.65;10.57;;;24.30;49.50;;;;;;6078331;28;83298;-59
2024/02/28 02:43:52;;;;;;;18.38;11.05;;;24.30;49.50;;;;;;6080545;28;83675;-58
2024/02/28 02:46:53;;;;;;;17.10;10.93;;;24.30;49.50;;;;;;6081367;28;82810;-59
2024/02/28 02:49:53;;;;;;;17.02;11.02;;;24.30;49.50;;;;;;6079726;28;85194;-58
2024/02/28 02:52:54;;;;;;;16.08;10.82;;;24.20;49.50;;;;;;6081152;28;83429;-59
2024/02/28 02:55:54;;;;;;;18.33;11.45;;;24.30;49.40;;;;;;6092417;28;83763;-59
2024/02/28 02:58:55;;;;;;;20.48;12.85;;;24.30;49.30;;;;;;6100554;28;83100;-59
2024/02/28 03:01:55;;;;;;;19.40;11.32;;;24.30;49.20;;;;;;6099113;28;84516;-59
2024/02/28 03:04:56;;;;;;;17.00;11.30;;;24.30;49.30;;;;;;6104091;28;83802;-59
2024/02/28 03:07:57;;;;;;;19.13;11.63;;;24.30;49.30;;;;;;6087164;28;82675;-60
2024/02/28 03:10:58;;;;;;;19.85;11.65;;;24.30;49.40;;;;;;6086618;28;83003;-59
2024/02/28 03:13:58;;;;;;;20.08;13.20;;;24.30;49.40;;;;;;6103280;28;84077;-60
2024/02/28 03:16:59;;;;;;;17.33;11.35;;;24.30;49.30;;;;;;6103274;28;84576;-59
2024/02/28 03:19:59;;;;;;;17.67;10.40;;;24.30;49.30;;;;;;6092179;28;86783;-59
2024/02/28 03:23:00;;;;;;;17.38;10.90;;;24.30;49.50;;;;;;6088806;28;83062;-60
2024/02/28 03:26:01;;;;;;;21.08;12.85;;;24.30;49.40;;;;;;6105008;28;83326;-60
2024/02/28 03:29:01;;;;;;;19.63;11.75;;;24.30;49.50;;;;;;6103851;28;83250;-60
2024/02/28 03:32:02;;;;;;;17.17;10.93;;;24.30;49.40;;;;;;6104050;28;83774;-60
2024/02/28 03:35:04;;;;;;;18.20;11.20;;;24.20;49.30;;;;;;6091539;28;83428;-60
2024/02/28 03:38:04;;;;;;;17.92;11.70;;;24.30;49.40;;;;;;6084282;28;83803;-61
2024/02/28 03:41:05;;;;;;;17.33;11.57;;;24.20;49.40;;;;;;6080277;28;82882;-61
2024/02/28 03:44:05;;;;;;;17.05;11.63;;;24.20;49.40;;;;;;6079388;28;86371;-62
2024/02/28 03:47:06;;;;;;;19.23;11.40;;;24.30;49.40;;;;;;6098190;28;83166;-61
2024/02/28 03:50:06;;;;;;;17.90;10.77;;;24.20;49.40;;;;;;6086349;28;83061;-60
2024/02/28 03:53:07;;;;;;;14.82;9.45;;;24.20;49.50;;;;;;6078984;28;83952;-60
2024/02/28 03:56:07;;;;;;;16.40;10.27;;;24.30;50.10;;;;;;6098023;28;82959;-60
2024/02/28 03:59:08;;;;;;;17.88;10.75;;;24.30;49.80;;;;;;6080685;28;82962;-59
2024/02/28 04:02:09;;;;;;;16.70;10.60;;;24.30;49.70;;;;;;6080307;28;82815;-61
2024/02/28 04:05:09;;;;;;;19.08;11.30;;;24.20;49.80;;;;;;6100350;28;83318;-61
2024/02/28 04:08:10;;;;;;;17.45;10.63;;;24.30;49.60;;;;;;6102582;28;84061;-61
2024/02/28 04:11:11;;;;;;;16.38;10.20;;;24.30;49.70;;;;;;6102142;28;85763;-61
2024/02/28 04:14:11;;;;;;;17.85;10.35;;;24.30;50.30;;;;;;6102551;28;83835;-59
2024/02/28 04:17:12;;;;;;;16.90;11.07;;;24.30;49.90;;;;;;6100172;28;83718;-60
2024/02/28 04:20:12;;;;;;;16.17;10.32;;;24.20;50.00;;;;;;6093369;28;90131;-59
2024/02/28 04:23:13;;;;;;;16.52;11.00;;;24.30;49.70;;;;;;6098763;28;82870;-60
2024/02/28 04:26:13;;;;;;;18.15;11.45;;;24.20;49.60;;;;;;6079950;28;83555;-61
2024/02/28 04:29:14;;;;;;;15.88;10.95;;;24.20;49.60;;;;;;6091427;28;82841;-60
2024/02/28 04:32:14;;;;;;;17.83;10.63;;;24.20;49.90;;;;;;6092139;28;82977;-60
2024/02/28 04:35:18;;;;;;;18.67;10.25;;;24.20;49.80;;;;;;6099555;28;83458;-60
2024/02/28 04:38:18;;;;;;;16.20;10.35;;;24.20;49.80;;;;;;6100962;28;83407;-64
2024/02/28 04:41:19;;;;;;;14.43;9.90;;;24.30;49.60;;;;;;6095298;28;85176;-61
2024/02/28 04:44:19;;;;;;;15.32;9.48;;;24.30;49.90;;;;;;6101165;28;86174;-61
2024/02/28 04:47:20;;;;;;;14.38;9.60;;;24.30;49.70;;;;;;6097901;28;80215;-62
2024/02/28 04:50:20;;;;;;;17.13;9.25;;;24.30;49.70;;;;;;6099247;28;80540;-62
2024/02/28 04:53:21;;;;;;;15.75;9.27;;;24.30;49.50;;;;;;6099682;28;80504;-61
2024/02/28 04:56:21;;;;;;;15.40;9.90;;;24.40;49.40;;;;;;6100479;28;80653;-64
2024/02/28 04:59:22;;;;;;;15.57;9.52;;;24.40;49.70;;;;;;6102802;28;80917;-61
2024/02/28 05:02:24;;;;;;;12.07;8.75;;;24.40;49.50;;;;;;6101851;28;81242;-64
2024/02/28 05:05:24;;;;;;;17.35;9.48;;;24.40;49.50;;;;;;6097750;28;80815;-64
2024/02/28 05:08:27;;;;;;;15.18;9.65;;;24.40;49.40;;;;;;6100277;28;81057;-61
2024/02/28 05:11:27;;;;;;;14.20;9.63;;;24.40;49.50;;;;;;6102299;28;80768;-62
2024/02/28 05:14:28;;;;;;;14.88;9.32;;;24.50;49.90;;;;;;6090809;28;80516;-66
2024/02/28 05:17:28;;;;;;;12.43;8.65;;;24.50;49.60;;;;;;6087078;28;83391;-61
2024/02/28 05:20:29;;;;;;;13.57;9.02;;;24.50;49.70;;;;;;6098765;28;80565;-59
2024/02/28 05:23:30;;;;;;;17.33;9.18;;;24.50;50.30;;;;;;6103918;28;80712;-63
2024/02/28 05:26:33;;;;;;;17.40;9.40;;;24.50;50.60;;;;;;6095030;28;81854;-61
2024/02/28 05:29:34;;;;;;;13.55;9.07;;;24.60;51.00;;;;;;6086872;28;80445;-61
2024/02/28 05:32:34;;;;;;;13.98;8.82;;;24.60;51.10;;;;;;6099614;28;80498;-60
2024/02/28 05:35:35;;;;;;;18.08;9.18;;;24.60;51.20;;;;;;6105819;28;80727;-59
2024/02/28 05:38:35;;;;;;;16.40;9.07;;;24.60;51.30;;;;;;6085868;28;82351;-59
2024/02/28 05:41:36;;;;;;;13.13;8.80;;;24.60;51.20;;;;;;6085164;28;81217;-59
2024/02/28 05:44:36;;;;;;;15.23;8.52;;;24.60;51.30;;;;;;6084473;28;80408;-60
2024/02/28 05:47:37;;;;;;;22.65;10.35;;;24.60;51.30;;;;;;6083906;28;81582;-60
2024/02/28 05:50:37;;;;;;;14.48;8.93;;;24.60;51.40;;;;;;6079855;28;83719;-58
2024/02/28 05:53:38;;;;;;;16.25;8.95;;;24.60;51.30;;;;;;6075066;28;82933;-60
2024/02/28 05:56:38;;;;;;;18.55;9.05;;;24.60;51.30;;;;;;6092401;28;81890;-61
2024/02/28 05:59:39;;;;;;;19.08;10.25;;;24.60;51.20;;;;;;6094297;28;81156;-59
2024/02/28 06:02:40;;;;;;;15.95;9.85;;;24.60;51.40;;;;;;6096851;28;83049;-59
2024/02/28 06:05:40;;;;;;;15.65;9.02;;;24.60;51.50;;;;;;6096405;28;82986;-57
2024/02/28 06:08:41;;;;;;;20.75;9.93;;;24.50;51.80;;;;;;6098862;28;82410;-60
2024/02/28 06:11:42;;;;;;;15.73;8.75;;;24.60;51.60;;;;;;6089292;28;81718;-60
2024/02/28 06:14:42;;;;;;;17.55;9.65;;;24.50;51.30;;;;;;6099520;28;81658;-60
2024/02/28 06:17:43;;;;;;;21.80;9.27;;;24.50;51.00;;;;;;6097896;28;81599;-60
2024/02/28 06:20:43;;;;;;;13.40;8.95;;;24.50;50.80;;;;;;6106641;28;81362;-61
2024/02/28 06:23:44;;;;;;;15.05;9.63;;;24.50;50.80;;;;;;6107777;28;81008;-61
2024/02/28 06:26:44;;;;;;;17.85;8.90;;;24.50;50.70;;;;;;6105660;28;81791;-61
2024/02/28 06:29:45;;;;;;;13.27;9.23;;;24.50;50.60;;;;;;6089071;28;84393;-60
2024/02/28 06:32:45;;;;;;;15.15;9.10;;;24.40;50.40;;;;;;6095901;28;82108;-60
2024/02/28 06:35:46;;;;;;;14.35;9.60;;;24.40;50.70;;;;;;6085119;28;80781;-63
2024/02/28 06:38:46;;;;;;;18.27;11.70;;;24.40;50.70;;;;;;6096824;28;80338;-60
2024/02/28 06:41:49;;;;;;;20.27;11.50;;;24.30;50.40;;;;;;6081749;28;83317;-60
2024/02/28 06:44:50;;;;;;;23.45;13.85;;;24.30;50.60;;;;;;6089455;28;88783;-59
2024/02/28 06:47:50;;;;;;;25.98;14.82;;;24.30;50.30;;;;;;6099275;28;83449;-61
2024/02/28 06:50:51;;;;;;;26.58;16.65;;;24.30;50.20;;;;;;6098558;28;83285;-62
2024/02/28 06:53:52;;;;;;;30.70;17.48;;;24.30;50.00;;;;;;6098454;28;85370;-61
2024/02/28 06:56:52;;;;;;;30.48;17.58;;;24.30;49.90;;;;;;6099684;28;82872;-61
2024/02/28 06:59:53;;;;;;;31.80;17.73;;;24.30;49.70;;;;;;6097652;28;83178;-60
2024/02/28 07:02:53;;;;;;;31.45;17.35;;;24.30;49.70;;;;;;6103528;28;83090;-60
2024/02/28 07:05:54;;;;;;;33.17;19.80;;;24.30;49.60;;;;;;6099551;28;84009;-60
2024/02/28 07:08:55;;;;;;;41.60;19.88;;;24.20;49.10;;;;;;6090814;28;83273;-62
2024/02/28 07:11:55;;;;;;;41.08;20.60;;;24.20;48.90;;;;;;6099456;28;85496;-61
2024/02/28 07:14:56;;;;;;;41.10;20.77;;;24.20;48.90;;;;;;6100192;28;83396;-59
2024/02/28 07:17:56;;;;;;;33.58;20.55;;;24.10;48.60;;;;;;6097702;28;83937;-59
2024/02/28 07:20:57;;;;;;;38.35;21.45;;;24.10;48.60;;;;;;6101526;28;83187;-60
2024/02/28 07:23:57;;;;;;;38.40;21.35;;;24.10;48.20;;;;;;6102858;28;83255;-60
2024/02/28 07:26:58;;;;;;;33.28;21.20;;;24.10;47.90;;;;;;6082389;28;82996;-60
2024/02/28 07:29:58;;;;;;;34.60;21.35;;;24.10;48.00;;;;;;6097148;28;84490;-60
2024/02/28 07:32:59;;;;;;;31.08;18.45;;;24.10;48.00;;;;;;6085823;28;83640;-60
2024/02/28 07:36:00;;;;;;;32.45;18.90;;;24.10;48.10;;;;;;6092500;28;83425;-60
2024/02/28 07:39:01;;;;;;;30.15;18.10;;;24.10;48.10;;;;;;6102367;28;82772;-59
2024/02/28 07:42:01;;;;;;;27.13;16.45;;;24.10;48.20;;;;;;6101987;28;83098;-59
2024/02/28 07:45:02;;;;;;;23.98;15.27;;;24.10;48.20;;;;;;6101605;28;83478;-59
2024/02/28 07:48:03;;;;;;;30.83;16.75;;;24.10;48.30;;;;;;6100785;28;83471;-59
2024/02/28 07:51:03;;;;;;;27.65;15.52;;;24.10;48.30;;;;;;6095209;28;84100;-59
2024/02/28 07:54:04;;;;;;;22.33;14.77;;;24.10;48.30;;;;;;6090886;28;83281;-59
2024/02/28 07:57:04;;;;;;;25.55;14.50;;;24.10;48.50;;;;;;6077396;28;83267;-60
2024/02/28 08:00:05;;;;;;;23.60;14.65;;;24.10;48.70;;;;;;6096453;28;83091;-59
2024/02/28 08:03:12;;;;;;;24.77;14.18;;;24.10;48.90;;;;;;6087128;28;89384;-60
2024/02/28 08:06:13;;;;;;;20.77;13.63;;;24.10;49.10;;;;;;6059815;28;98031;-59
2024/02/28 08:09:15;;;;;;;20.10;12.75;;;24.20;49.40;;;;;;6092564;28;84236;-59
2024/02/28 08:12:15;;;;;;;21.48;12.52;;;24.20;49.80;;;;;;6091999;28;83395;-56
2024/02/28 08:15:16;;;;;;;20.38;11.75;;;24.20;50.00;;;;;;6101459;28;82854;-58
2024/02/28 08:18:16;;;;;;;19.33;12.30;;;24.20;50.10;;;;;;6095349;28;83190;-59
2024/02/28 08:21:18;;;;;;;21.60;13.05;;;24.30;50.20;;;;;;6098586;28;85185;-59
2024/02/28 08:24:18;;;;;;;21.63;13.13;;;24.20;50.10;;;;;;6090319;28;83341;-59
2024/02/28 08:27:20;;;;;;;20.30;12.65;;;24.20;50.10;;;;;;6088833;28;83602;-59
2024/02/28 08:30:21;;;;;;;19.63;12.23;;;24.30;50.10;;;;;;6096079;28;83095;-59
2024/02/28 08:33:21;;;;;;;20.88;12.73;;;24.20;50.00;;;;;;6093592;28;83355;-59
2024/02/28 08:36:22;;;;;;;20.77;12.52;;;24.20;49.90;;;;;;6088396;28;83482;-60
2024/02/28 08:39:23;;;;;;;19.38;13.27;;;24.30;49.90;;;;;;6100021;28;84873;-60
2024/02/28 08:42:24;;;;;;;20.58;12.55;;;24.20;49.80;;;;;;6101847;28;83959;-59
2024/02/28 08:45:24;;;;;;;19.52;12.60;;;24.20;49.70;;;;;;6088450;28;84477;-59
2024/02/28 08:48:25;;;;;;;19.60;12.35;;;24.20;49.80;;;;;;6099642;28;83399;-59
2024/02/28 08:51:26;;;;;;;17.83;12.25;;;24.20;49.80;;;;;;6101208;28;83498;-59
2024/02/28 08:54:27;;;;;;;20.23;12.10;;;24.10;49.90;;;;;;6093326;28;83351;-60
2024/02/28 08:57:29;;;;;;;21.00;12.57;;;24.10;49.90;;;;;;6079099;28;83195;-60
2024/02/28 09:00:30;;;;;;;19.40;13.02;;;24.10;49.90;;;;;;6090255;28;83057;-60
2024/02/28 09:03:30;;;;;;;19.13;12.18;;;24.20;49.70;;;;;;6083865;28;88104;-60
2024/02/28 09:06:31;;;;;;;17.45;11.77;;;24.10;49.70;;;;;;6079844;28;83506;-59
2024/02/28 09:09:36;;;;;;;19.95;12.90;;;24.10;49.70;;;;;;6077986;28;83433;-60
2024/02/28 09:12:36;;;;;;;17.65;11.63;;;24.10;49.70;;;;;;6079553;28;83915;-60
2024/02/28 09:15:37;;;;;;;19.98;12.68;;;24.20;49.70;;;;;;6090890;28;85457;-59
2024/02/28 09:18:38;;;;;;;17.83;12.63;;;24.20;49.70;;;;;;6079481;28;83137;-59
2024/02/28 09:21:38;;;;;;;21.35;11.40;;;24.20;49.70;;;;;;6091994;28;83114;-59
2024/02/28 09:24:39;;;;;;;18.83;11.90;;;24.20;49.60;;;;;;6086592;28;83900;-59
2024/02/28 09:27:39;;;;;;;23.65;14.30;;;24.20;49.70;;;;;;6091237;28;83124;-59
2024/02/28 09:30:40;;;;;;;21.05;12.70;;;24.20;49.70;;;;;;6102539;28;84320;-59
2024/02/28 09:33:40;;;;;;;16.33;9.10;;;24.20;49.70;;;;;;6079806;28;84143;-59
2024/02/28 09:36:42;;;;;;;17.23;10.40;;;24.10;49.90;;;;;;6088479;28;83117;-59
2024/02/28 09:39:43;;;;;;;20.60;12.23;;;24.10;50.10;;;;;;6096168;28;83061;-59
2024/02/28 09:42:43;;;;;;;19.38;11.80;;;24.20;49.80;;;;;;6082243;28;84683;-60
2024/02/28 09:45:44;;;;;;;17.73;12.50;;;24.20;49.70;;;;;;6101808;28;83697;-59
2024/02/28 09:48:45;;;;;;;19.00;12.68;;;24.20;49.70;;;;;;6100001;28;85408;-60
2024/02/28 09:51:45;;;;;;;17.98;11.88;;;24.10;49.80;;;;;;6102162;28;83700;-59
2024/02/28 09:54:46;;;;;;;19.45;12.15;;;24.10;49.90;;;;;;6101296;28;85797;-59
2024/02/28 09:57:46;;;;;;;19.33;11.82;;;24.10;49.80;;;;;;6097199;28;83268;-59
2024/02/28 10:00:47;;;;;;;21.17;12.75;;;24.10;49.70;;;;;;6100553;28;83187;-59
2024/02/28 10:03:48;;;;;;;16.17;11.65;;;24.10;49.80;;;;;;6100734;28;83088;-59
2024/02/28 10:06:49;;;;;;;16.77;12.00;;;24.20;49.70;;;;;;6085614;28;83454;-60
2024/02/28 10:09:50;;;;;;;17.58;11.52;;;24.10;49.60;;;;;;6090384;28;83192;-59
2024/02/28 10:12:51;;;;;;;17.58;12.02;;;24.10;49.50;;;;;;6083748;28;87782;-60
2024/02/28 10:15:51;;;;;;;19.98;12.25;;;24.10;49.50;;;;;;6090745;28;87082;-61
2024/02/28 10:18:52;;;;;;;21.85;11.80;;;24.10;49.70;;;;;;6097584;28;83490;-60
2024/02/28 10:21:52;;;;;;;18.45;12.05;;;24.20;49.60;;;;;;6090588;28;83303;-60
2024/02/28 10:24:53;;;;;;;20.05;12.73;;;24.10;49.50;;;;;;6099916;28;83788;-60
2024/02/28 10:27:53;;;;;;;23.50;12.30;;;24.10;49.60;;;;;;6100648;28;83574;-59
2024/02/28 10:30:54;;;;;;;19.52;11.60;;;24.10;49.60;;;;;;6086691;28;83416;-60
2024/02/28 10:33:54;;;;;;;18.95;11.82;;;24.10;49.60;;;;;;6095297;28;83588;-60
2024/02/28 10:36:55;;;;;;;17.20;12.05;;;24.10;49.70;;;;;;6090609;28;84251;-60
2024/02/28 10:39:56;;;;;;;17.48;11.63;;;24.10;49.70;;;;;;6080754;28;85525;-60
2024/02/28 10:42:57;;;;;;;18.10;11.95;;;24.10;49.70;;;;;;6081194;28;83267;-60
2024/02/28 10:46:01;;;;;;;17.92;12.00;;;24.10;49.70;;;;;;6082251;28;83637;-60
2024/02/28 10:49:02;;;;;;;18.45;11.90;;;24.10;49.70;;;;;;6088719;28;87389;-60
2024/02/28 10:52:03;;;;;;;20.58;11.90;;;24.10;49.70;;;;;;6094252;28;82875;-60
2024/02/28 10:55:04;;;;;;;17.25;11.13;;;24.10;49.90;;;;;;6091618;28;85599;-60
2024/02/28 10:58:04;;;;;;;16.83;11.57;;;24.20;50.00;;;;;;6090590;28;83262;-61
2024/02/28 11:01:05;;;;;;;20.58;11.63;;;24.20;49.90;;;;;;6098429;28;85461;-60
2024/02/28 11:04:05;;;;;;;19.77;12.23;;;24.20;49.70;;;;;;6100608;28;84059;-60
2024/02/28 11:07:06;;;;;;;18.65;11.90;;;24.10;49.70;;;;;;6098436;28;83833;-61
2024/02/28 11:10:07;;;;;;;17.38;11.98;;;24.10;49.70;;;;;;6096268;28;83019;-60
2024/02/28 11:13:10;;;;;;;19.65;12.48;;;24.10;49.80;;;;;;6096605;28;83938;-60
2024/02/28 11:16:11;;;;;;;21.77;12.52;;;24.10;49.70;;;;;;6095798;28;82996;-60
2024/02/28 11:19:11;;;;;;;20.17;13.00;;;24.10;49.70;;;;;;6093385;28;84464;-60
2024/02/28 11:22:12;;;;;;;18.73;11.68;;;24.10;49.70;;;;;;6104922;28;83382;-59
2024/02/28 11:25:12;;;;;;;19.80;12.43;;;24.10;49.70;;;;;;6101498;28;83193;-60
2024/02/28 11:28:13;;;;;;;21.23;12.50;;;24.10;49.70;;;;;;6099138;28;84053;-60
2024/02/28 11:31:13;;;;;;;21.50;12.93;;;24.20;49.70;;;;;;6102602;28;83549;-60
2024/02/28 11:34:14;;;;;;;18.85;12.40;;;24.20;49.70;;;;;;6096690;28;83614;-60
2024/02/28 11:37:14;;;;;;;19.92;11.98;;;24.20;50.00;;;;;;6103697;28;83146;-60
2024/02/28 11:40:15;;;;;;;18.52;11.57;;;24.20;49.70;;;;;;6099369;28;83194;-60
2024/02/28 11:43:15;;;;;;;25.70;13.15;;;24.10;49.80;;;;;;6096393;28;83368;-58
2024/02/28 11:46:16;;;;;;;19.60;11.88;;;24.20;50.20;;;;;;6102469;28;83149;-59
2024/02/28 11:49:17;;;;;;;18.27;12.10;;;24.20;50.00;;;;;;6097303;28;83589;-59
2024/02/28 11:52:18;;;;;;;18.95;12.73;;;24.20;50.10;;;;;;6098383;28;84645;-59
2024/02/28 11:55:18;;;;;;;19.38;12.32;;;24.20;50.10;;;;;;6096719;28;83239;-59
2024/02/28 11:58:20;;;;;;;18.08;11.50;;;24.20;50.10;;;;;;6097868;28;83234;-58
2024/02/28 12:01:21;;;;;;;18.63;11.95;;;24.30;50.30;;;;;;6099264;28;85532;-60
2024/02/28 12:04:21;;;;;;;19.65;12.45;;;24.20;51.00;;;;;;6101677;28;85166;-59
2024/02/28 12:07:22;;;;;;;19.85;12.07;;;24.20;50.70;;;;;;6093286;28;83167;-60
2024/02/28 12:10:22;;;;;;;18.10;11.32;;;24.20;50.40;;;;;;6088577;28;84145;-60
2024/02/28 12:13:23;;;;;;;23.27;12.25;;;24.20;50.70;;;;;;6092109;28;83791;-61
2024/02/28 12:16:23;;;;;;;16.88;10.80;;;24.20;50.30;;;;;;6094773;28;83472;-60
2024/02/28 12:19:24;;;;;;;17.08;10.60;;;24.20;50.50;;;;;;6083237;28;82813;-60
2024/02/28 12:22:24;;;;;;;17.05;10.60;;;24.20;51.10;;;;;;6102977;28;85634;-59
2024/02/28 12:25:25;;;;;;;17.80;10.07;;;24.20;51.00;;;;;;6104197;28;82984;-59
2024/02/28 12:28:26;;;;;;;17.15;11.02;;;24.20;50.90;;;;;;6098728;28;83170;-60
2024/02/28 12:31:26;;;;;;;18.48;10.48;;;24.20;50.80;;;;;;6093446;28;82987;-59
2024/02/28 12:34:27;;;;;;;18.08;10.25;;;24.30;51.00;;;;;;6101270;28;83329;-60
2024/02/28 12:37:28;;;;;;;16.65;10.00;;;24.30;51.00;;;;;;6092236;28;84591;-61
2024/02/28 12:40:28;;;;;;;19.90;10.55;;;24.30;51.00;;;;;;6103155;28;83291;-60
2024/02/28 12:43:29;;;;;;;20.05;11.10;;;24.30;51.00;;;;;;6102290;28;83173;-60
2024/02/28 12:46:29;;;;;;;20.50;10.88;;;24.30;51.00;;;;;;6095213;28;89700;-60
2024/02/28 12:49:30;;;;;;;19.52;10.43;;;24.30;51.00;;;;;;6096721;28;83607;-58
2024/02/28 12:52:30;;;;;;;17.80;11.45;;;24.40;51.10;;;;;;6080298;28;85902;-60
2024/02/28 12:55:31;;;;;;;23.30;11.23;;;24.40;51.20;;;;;;6079787;28;84381;-60
2024/02/28 12:58:32;;;;;;;21.85;11.35;;;24.40;51.10;;;;;;6080885;28;84173;-61
2024/02/28 13:01:32;;;;;;;20.83;10.30;;;24.40;51.30;;;;;;6088613;28;82762;-60
2024/02/28 13:04:33;;;;;;;17.45;10.27;;;24.40;51.20;;;;;;6082420;28;83451;-60
2024/02/28 13:07:35;;;;;;;17.38;10.27;;;24.40;51.30;;;;;;6082083;28;83467;-60
2024/02/28 13:10:40;;;;;;;16.05;10.13;;;24.40;51.40;;;;;;6083563;28;83628;-60
2024/02/28 13:13:41;;;;;;;18.53;10.70;;;24.40;51.50;;;;;;6086406;28;83497;-62
2024/02/28 13:16:41;;;;;;;24.85;10.80;;;24.40;51.50;;;;;;6085766;28;85448;-66
2024/02/28 13:19:42;;;;;;;18.98;10.50;;;24.40;51.50;;;;;;6086693;28;83311;-64
2024/02/28 13:22:42;;;;;;;15.77;10.13;;;24.40;51.30;;;;;;6100469;28;84150;-64
2024/02/28 13:25:43;;;;;;;20.67;10.52;;;24.40;51.10;;;;;;6089148;28;82800;-66
2024/02/28 13:28:43;;;;;;;22.88;10.95;;;24.40;51.00;;;;;;6097364;28;83683;-65
2024/02/28 13:31:44;;;;;;;16.33;10.45;;;24.40;50.90;;;;;;6098993;28;84505;-61
2024/02/28 13:34:45;;;;;;;21.20;10.88;;;24.40;50.90;;;;;;6097723;28;83985;-68
2024/02/28 13:37:45;;;;;;;22.73;10.60;;;24.30;50.80;;;;;;6095621;28;84073;-61
2024/02/28 13:40:46;;;;;;;18.70;10.68;;;24.30;50.90;;;;;;6093932;28;83467;-64
2024/02/28 13:43:46;;;;;;;20.17;10.13;;;24.30;50.70;;;;;;6090407;28;83182;-63
2024/02/28 13:46:47;;;;;;;22.83;10.73;;;24.30;50.90;;;;;;6085861;28;84047;-58
2024/02/28 13:49:49;;;;;;;29.77;12.00;;;24.30;51.10;;;;;;6096242;28;82973;-58
2024/02/28 13:52:50;;;;;;;20.60;11.18;;;24.30;51.60;;;;;;6096572;28;87412;-63
2024/02/28 13:55:50;;;;;;;20.17;11.10;;;24.30;51.40;;;;;;6087673;28;84766;-58
2024/02/28 13:58:51;;;;;;;19.48;10.90;;;24.30;51.70;;;;;;6094005;28;83501;-58
2024/02/28 14:01:51;;;;;;;25.55;12.25;;;24.20;51.70;;;;;;6099387;28;83604;-61
2024/02/28 14:04:52;;;;;;;19.58;10.75;;;24.30;51.90;;;;;;6096634;28;84062;-60
2024/02/28 14:07:52;;;;;;;31.48;12.88;;;24.30;51.70;;;;;;6097178;28;83415;-57
2024/02/28 14:10:53;;;;;;;21.17;12.27;;;24.30;51.80;;;;;;6095596;28;83434;-58
2024/02/28 14:13:53;;;;;;;20.63;12.32;;;24.30;51.80;;;;;;6098441;28;83409;-58
2024/02/28 14:16:54;;;;;;;19.23;12.00;;;24.40;51.80;;;;;;6098773;28;83378;-58
2024/02/28 14:19:54;;;;;;;36.88;12.43;;;24.40;52.10;;;;;;6100315;28;83622;-58
2024/02/28 14:22:56;;;;;;;25.23;12.95;;;24.40;52.20;;;;;;6096750;28;85514;-63
2024/02/28 14:25:57;;;;;;;30.83;12.43;;;24.40;51.90;;;;;;6099827;28;83308;-59
2024/02/28 14:28:58;;;;;;;21.90;11.95;;;24.40;52.50;;;;;;6096688;28;83855;-59
2024/02/28 14:32:00;;;;;;;21.20;11.80;;;24.40;52.40;;;;;;6093614;28;84209;-59
2024/02/28 14:35:00;;;;;;;23.63;11.85;;;24.40;52.50;;;;;;6100994;28;83026;-59
2024/02/28 14:38:01;;;;;;;17.92;10.98;;;24.50;52.50;;;;;;6101286;28;83412;-59
2024/02/28 14:41:03;;;;;;;24.00;12.10;;;24.50;52.50;;;;;;6087233;28;85305;-59
2024/02/28 14:44:04;;;;;;;37.95;12.02;;;24.50;52.50;;;;;;6095539;28;87801;-59
2024/02/28 14:47:04;;;;;;;22.17;11.02;;;24.50;52.50;;;;;;6100366;28;83006;-59
2024/02/28 14:50:05;;;;;;;23.90;11.60;;;24.50;52.40;;;;;;6101420;28;83611;-59
2024/02/28 14:53:06;;;;;;;22.70;11.90;;;24.50;52.40;;;;;;6087954;28;82912;-59
2024/02/28 14:56:06;;;;;;;21.00;11.90;;;24.50;52.30;;;;;;6101626;28;83034;-60
2024/02/28 14:59:07;;;;;;;23.20;13.18;;;24.50;52.20;;;;;;6102099;28;83523;-59
2024/02/28 15:02:07;;;;;;;21.45;11.55;;;24.50;52.10;;;;;;6086434;28;83784;-60
2024/02/28 15:05:08;;;;;;;22.15;12.00;;;24.50;52.20;;;;;;6085644;28;83338;-60
2024/02/28 15:08:08;;;;;;;23.15;12.13;;;24.50;52.10;;;;;;6083692;28;84751;-60
2024/02/28 15:11:09;;;;;;;19.00;11.77;;;24.50;52.20;;;;;;6085616;28;84664;-61
2024/02/28 15:14:09;;;;;;;17.60;10.13;;;24.50;52.00;;;;;;6082693;28;85914;-59
2024/02/28 15:17:10;;;;;;;19.02;9.90;;;24.60;52.10;;;;;;6091438;28;83173;-58